sensor_id;sensor_type;location;lat;lon;timestamp;P1;durP1;ratioP1;P2;durP2;ratioP2
3131;SDS011;62090;52.330;9.104;2023-05-07T00:02:05;56.50;;;38.10;;
3131;SDS011;62090;52.330;9.104;2023-05-07T00:04:38;55.83;;;39.90;;
3131;SDS011;62090;52.330;9.104;2023-05-07T00:07:07;64.57;;;42.07;;
3131;SDS011;62090;52.330;9.104;2023-05-07T00:09:37;54.50;;;40.87;;
3131;SDS011;62090;52.330;9.104;2023-05-07T00:12:07;64.60;;;41.30;;
3131;SDS011;62090;52.330;9.104;2023-05-07T00:14:37;56.53;;;41.70;;
3131;SDS011;62090;52.330;9.104;2023-05-07T00:17:07;57.60;;;40.40;;
3131;SDS011;62090;52.330;9.104;2023-05-07T00:19:39;60.87;;;41.93;;
3131;SDS011;62090;52.330;9.104;2023-05-07T00:22:09;58.10;;;42.07;;
3131;SDS011;62090;52.330;9.104;2023-05-07T00:24:39;62.13;;;43.00;;
3131;SDS011;62090;52.330;9.104;2023-05-07T00:27:09;62.70;;;42.17;;
3131;SDS011;62090;52.330;9.104;2023-05-07T00:29:39;65.60;;;46.30;;
3131;SDS011;62090;52.330;9.104;2023-05-07T00:32:08;67.03;;;44.87;;
3131;SDS011;62090;52.330;9.104;2023-05-07T00:34:41;61.67;;;43.53;;
3131;SDS011;62090;52.330;9.104;2023-05-07T00:37:11;61.27;;;44.30;;
3131;SDS011;62090;52.330;9.104;2023-05-07T00:39:41;62.57;;;45.40;;
3131;SDS011;62090;52.330;9.104;2023-05-07T00:42:11;63.43;;;44.63;;
3131;SDS011;62090;52.330;9.104;2023-05-07T00:44:41;66.47;;;45.63;;
3131;SDS011;62090;52.330;9.104;2023-05-07T00:47:11;67.00;;;46.30;;
3131;SDS011;62090;52.330;9.104;2023-05-07T00:49:45;73.70;;;46.20;;
3131;SDS011;62090;52.330;9.104;2023-05-07T00:52:16;73.23;;;46.37;;
3131;SDS011;62090;52.330;9.104;2023-05-07T00:54:47;70.00;;;46.80;;
3131;SDS011;62090;52.330;9.104;2023-05-07T00:57:17;67.10;;;46.93;;
3131;SDS011;62090;52.330;9.104;2023-05-07T00:59:47;67.10;;;46.13;;
3131;SDS011;62090;52.330;9.104;2023-05-07T01:02:18;71.33;;;49.33;;
3131;SDS011;62090;52.330;9.104;2023-05-07T01:04:50;73.77;;;47.23;;
3131;SDS011;62090;52.330;9.104;2023-05-07T01:07:20;76.77;;;50.07;;
3131;SDS011;62090;52.330;9.104;2023-05-07T01:09:51;69.87;;;47.90;;
3131;SDS011;62090;52.330;9.104;2023-05-07T01:12:21;71.73;;;47.73;;
3131;SDS011;62090;52.330;9.104;2023-05-07T01:14:51;69.53;;;47.73;;
3131;SDS011;62090;52.330;9.104;2023-05-07T01:17:21;75.23;;;47.20;;
3131;SDS011;62090;52.330;9.104;2023-05-07T01:19:54;69.50;;;47.43;;
3131;SDS011;62090;52.330;9.104;2023-05-07T01:22:31;73.60;;;46.30;;
3131;SDS011;62090;52.330;9.104;2023-05-07T01:25:03;67.50;;;44.87;;
3131;SDS011;62090;52.330;9.104;2023-05-07T01:27:38;70.37;;;48.00;;
3131;SDS011;62090;52.330;9.104;2023-05-07T01:30:08;68.90;;;45.57;;
3131;SDS011;62090;52.330;9.104;2023-05-07T01:32:40;60.10;;;41.30;;
3131;SDS011;62090;52.330;9.104;2023-05-07T01:35:15;61.60;;;42.77;;
3131;SDS011;62090;52.330;9.104;2023-05-07T01:37:51;65.67;;;44.50;;
3131;SDS011;62090;52.330;9.104;2023-05-07T01:40:22;68.37;;;44.23;;
3131;SDS011;62090;52.330;9.104;2023-05-07T01:42:53;64.83;;;42.33;;
3131;SDS011;62090;52.330;9.104;2023-05-07T01:45:24;66.20;;;43.63;;
3131;SDS011;62090;52.330;9.104;2023-05-07T01:47:54;63.67;;;42.53;;
3131;SDS011;62090;52.330;9.104;2023-05-07T01:50:25;70.07;;;44.23;;
3131;SDS011;62090;52.330;9.104;2023-05-07T01:52:57;65.90;;;44.97;;
3131;SDS011;62090;52.330;9.104;2023-05-07T01:55:28;62.47;;;40.83;;
3131;SDS011;62090;52.330;9.104;2023-05-07T01:57:58;64.47;;;43.97;;
3131;SDS011;62090;52.330;9.104;2023-05-07T02:00:28;70.60;;;42.87;;
3131;SDS011;62090;52.330;9.104;2023-05-07T02:02:58;73.37;;;44.03;;
3131;SDS011;62090;52.330;9.104;2023-05-07T02:05:41;76.57;;;45.17;;
3131;SDS011;62090;52.330;9.104;2023-05-07T02:08:21;71.27;;;46.43;;
3131;SDS011;62090;52.330;9.104;2023-05-07T02:10:51;69.07;;;43.90;;
3131;SDS011;62090;52.330;9.104;2023-05-07T02:13:21;66.23;;;43.00;;
3131;SDS011;62090;52.330;9.104;2023-05-07T02:15:51;74.93;;;44.53;;
3131;SDS011;62090;52.330;9.104;2023-05-07T02:18:23;68.90;;;43.57;;
3131;SDS011;62090;52.330;9.104;2023-05-07T02:20:53;63.47;;;43.03;;
3131;SDS011;62090;52.330;9.104;2023-05-07T02:23:26;66.53;;;41.37;;
3131;SDS011;62090;52.330;9.104;2023-05-07T02:25:56;64.07;;;42.27;;
3131;SDS011;62090;52.330;9.104;2023-05-07T02:28:26;68.63;;;41.33;;
3131;SDS011;62090;52.330;9.104;2023-05-07T02:30:59;73.00;;;44.00;;
3131;SDS011;62090;52.330;9.104;2023-05-07T02:33:29;71.13;;;43.10;;
3131;SDS011;62090;52.330;9.104;2023-05-07T02:36:05;67.23;;;42.37;;
3131;SDS011;62090;52.330;9.104;2023-05-07T02:38:44;66.10;;;42.77;;
3131;SDS011;62090;52.330;9.104;2023-05-07T02:41:14;71.03;;;44.33;;
3131;SDS011;62090;52.330;9.104;2023-05-07T02:43:44;75.10;;;46.57;;
3131;SDS011;62090;52.330;9.104;2023-05-07T02:46:14;71.40;;;45.20;;
3131;SDS011;62090;52.330;9.104;2023-05-07T02:48:48;70.63;;;44.67;;
3131;SDS011;62090;52.330;9.104;2023-05-07T02:51:19;70.33;;;43.67;;
3131;SDS011;62090;52.330;9.104;2023-05-07T02:53:56;79.50;;;45.93;;
3131;SDS011;62090;52.330;9.104;2023-05-07T02:56:28;81.87;;;45.67;;
3131;SDS011;62090;52.330;9.104;2023-05-07T02:58:58;75.73;;;45.80;;
3131;SDS011;62090;52.330;9.104;2023-05-07T03:01:32;81.03;;;44.20;;
3131;SDS011;62090;52.330;9.104;2023-05-07T03:04:05;74.57;;;44.40;;
3131;SDS011;62090;52.330;9.104;2023-05-07T03:06:35;70.93;;;44.07;;
3131;SDS011;62090;52.330;9.104;2023-05-07T03:09:07;77.67;;;43.73;;
3131;SDS011;62090;52.330;9.104;2023-05-07T03:11:37;88.77;;;45.30;;
3131;SDS011;62090;52.330;9.104;2023-05-07T03:14:07;74.93;;;45.53;;
3131;SDS011;62090;52.330;9.104;2023-05-07T03:16:38;70.70;;;42.87;;
3131;SDS011;62090;52.330;9.104;2023-05-07T03:19:08;70.87;;;42.57;;
3131;SDS011;62090;52.330;9.104;2023-05-07T03:21:38;70.13;;;41.60;;
3131;SDS011;62090;52.330;9.104;2023-05-07T03:24:10;80.63;;;43.13;;
3131;SDS011;62090;52.330;9.104;2023-05-07T03:26:40;76.80;;;43.37;;
3131;SDS011;62090;52.330;9.104;2023-05-07T03:29:10;68.77;;;41.70;;
3131;SDS011;62090;52.330;9.104;2023-05-07T03:31:39;62.33;;;41.20;;
3131;SDS011;62090;52.330;9.104;2023-05-07T03:34:10;63.40;;;41.63;;
3131;SDS011;62090;52.330;9.104;2023-05-07T03:36:39;59.17;;;38.30;;
3131;SDS011;62090;52.330;9.104;2023-05-07T03:39:13;60.30;;;36.20;;
3131;SDS011;62090;52.330;9.104;2023-05-07T03:41:43;58.77;;;37.60;;
3131;SDS011;62090;52.330;9.104;2023-05-07T03:44:13;55.40;;;36.03;;
3131;SDS011;62090;52.330;9.104;2023-05-07T03:46:44;58.07;;;37.50;;
3131;SDS011;62090;52.330;9.104;2023-05-07T03:49:13;58.67;;;37.23;;
3131;SDS011;62090;52.330;9.104;2023-05-07T03:51:43;50.53;;;34.90;;
3131;SDS011;62090;52.330;9.104;2023-05-07T03:54:16;52.70;;;34.40;;
3131;SDS011;62090;52.330;9.104;2023-05-07T03:56:46;54.00;;;34.37;;
3131;SDS011;62090;52.330;9.104;2023-05-07T03:59:16;57.63;;;36.20;;
3131;SDS011;62090;52.330;9.104;2023-05-07T04:01:47;53.60;;;34.33;;
3131;SDS011;62090;52.330;9.104;2023-05-07T04:04:19;49.50;;;32.70;;
3131;SDS011;62090;52.330;9.104;2023-05-07T04:06:49;52.23;;;31.03;;
3131;SDS011;62090;52.330;9.104;2023-05-07T04:09:23;45.60;;;31.07;;
3131;SDS011;62090;52.330;9.104;2023-05-07T04:11:55;44.57;;;29.50;;
3131;SDS011;62090;52.330;9.104;2023-05-07T04:14:25;45.93;;;29.60;;
3131;SDS011;62090;52.330;9.104;2023-05-07T04:16:55;41.03;;;28.50;;
3131;SDS011;62090;52.330;9.104;2023-05-07T04:19:25;43.67;;;28.23;;
3131;SDS011;62090;52.330;9.104;2023-05-07T04:21:55;39.40;;;27.23;;
3131;SDS011;62090;52.330;9.104;2023-05-07T04:24:30;39.47;;;28.77;;
3131;SDS011;62090;52.330;9.104;2023-05-07T04:27:02;39.33;;;27.63;;
3131;SDS011;62090;52.330;9.104;2023-05-07T04:29:33;40.13;;;28.33;;
3131;SDS011;62090;52.330;9.104;2023-05-07T04:32:03;44.40;;;29.80;;
3131;SDS011;62090;52.330;9.104;2023-05-07T04:34:34;37.93;;;27.03;;
3131;SDS011;62090;52.330;9.104;2023-05-07T04:37:04;36.83;;;27.93;;
3131;SDS011;62090;52.330;9.104;2023-05-07T04:39:36;37.40;;;27.10;;
3131;SDS011;62090;52.330;9.104;2023-05-07T04:42:06;35.33;;;26.30;;
3131;SDS011;62090;52.330;9.104;2023-05-07T04:44:36;34.90;;;26.37;;
3131;SDS011;62090;52.330;9.104;2023-05-07T04:47:06;37.00;;;26.93;;
3131;SDS011;62090;52.330;9.104;2023-05-07T04:49:37;44.53;;;29.07;;
3131;SDS011;62090;52.330;9.104;2023-05-07T04:52:08;36.80;;;28.23;;
3131;SDS011;62090;52.330;9.104;2023-05-07T04:54:41;41.17;;;28.90;;
3131;SDS011;62090;52.330;9.104;2023-05-07T04:57:11;41.40;;;28.27;;
3131;SDS011;62090;52.330;9.104;2023-05-07T04:59:41;44.50;;;31.73;;
3131;SDS011;62090;52.330;9.104;2023-05-07T05:02:11;41.37;;;30.37;;
3131;SDS011;62090;52.330;9.104;2023-05-07T05:04:41;39.90;;;29.80;;
3131;SDS011;62090;52.330;9.104;2023-05-07T05:07:11;45.20;;;31.40;;
3131;SDS011;62090;52.330;9.104;2023-05-07T05:09:44;43.40;;;31.23;;
3131;SDS011;62090;52.330;9.104;2023-05-07T05:12:14;47.13;;;31.30;;
3131;SDS011;62090;52.330;9.104;2023-05-07T05:14:44;41.00;;;29.43;;
3131;SDS011;62090;52.330;9.104;2023-05-07T05:17:14;41.20;;;30.37;;
3131;SDS011;62090;52.330;9.104;2023-05-07T05:19:45;43.43;;;30.83;;
3131;SDS011;62090;52.330;9.104;2023-05-07T05:22:15;45.33;;;31.47;;
3131;SDS011;62090;52.330;9.104;2023-05-07T05:24:48;39.90;;;29.90;;
3131;SDS011;62090;52.330;9.104;2023-05-07T05:27:18;43.67;;;30.67;;
3131;SDS011;62090;52.330;9.104;2023-05-07T05:29:48;44.13;;;29.97;;
3131;SDS011;62090;52.330;9.104;2023-05-07T05:32:18;40.97;;;29.00;;
3131;SDS011;62090;52.330;9.104;2023-05-07T05:34:50;40.50;;;30.00;;
3131;SDS011;62090;52.330;9.104;2023-05-07T05:37:19;41.33;;;27.60;;
3131;SDS011;62090;52.330;9.104;2023-05-07T05:39:52;41.30;;;30.20;;
3131;SDS011;62090;52.330;9.104;2023-05-07T05:42:25;38.90;;;28.60;;
3131;SDS011;62090;52.330;9.104;2023-05-07T05:44:55;41.23;;;29.83;;
3131;SDS011;62090;52.330;9.104;2023-05-07T05:47:25;38.80;;;29.40;;
3131;SDS011;62090;52.330;9.104;2023-05-07T05:49:55;39.43;;;26.90;;
3131;SDS011;62090;52.330;9.104;2023-05-07T05:52:25;42.17;;;27.77;;
3131;SDS011;62090;52.330;9.104;2023-05-07T05:54:58;42.20;;;29.43;;
3131;SDS011;62090;52.330;9.104;2023-05-07T05:57:28;41.50;;;28.23;;
3131;SDS011;62090;52.330;9.104;2023-05-07T05:59:58;36.83;;;26.07;;
3131;SDS011;62090;52.330;9.104;2023-05-07T06:02:30;44.60;;;27.53;;
3131;SDS011;62090;52.330;9.104;2023-05-07T06:05:00;36.23;;;26.67;;
3131;SDS011;62090;52.330;9.104;2023-05-07T06:07:30;37.27;;;26.27;;
3131;SDS011;62090;52.330;9.104;2023-05-07T06:10:04;33.30;;;25.17;;
3131;SDS011;62090;52.330;9.104;2023-05-07T06:12:35;40.07;;;25.33;;
3131;SDS011;62090;52.330;9.104;2023-05-07T06:15:05;38.57;;;24.80;;
3131;SDS011;62090;52.330;9.104;2023-05-07T06:17:36;35.60;;;25.00;;
3131;SDS011;62090;52.330;9.104;2023-05-07T06:20:09;35.20;;;24.50;;
3131;SDS011;62090;52.330;9.104;2023-05-07T06:22:40;35.63;;;25.27;;
3131;SDS011;62090;52.330;9.104;2023-05-07T06:25:13;30.00;;;22.87;;
3131;SDS011;62090;52.330;9.104;2023-05-07T06:27:43;43.47;;;25.40;;
3131;SDS011;62090;52.330;9.104;2023-05-07T06:30:13;29.00;;;22.27;;
3131;SDS011;62090;52.330;9.104;2023-05-07T06:32:43;31.50;;;22.40;;
3131;SDS011;62090;52.330;9.104;2023-05-07T06:35:14;32.83;;;23.30;;
3131;SDS011;62090;52.330;9.104;2023-05-07T06:37:44;31.03;;;22.07;;
3131;SDS011;62090;52.330;9.104;2023-05-07T06:40:21;31.93;;;23.30;;
3131;SDS011;62090;52.330;9.104;2023-05-07T06:42:51;29.57;;;21.57;;
3131;SDS011;62090;52.330;9.104;2023-05-07T06:45:28;34.13;;;24.10;;
3131;SDS011;62090;52.330;9.104;2023-05-07T06:47:59;30.67;;;22.40;;
3131;SDS011;62090;52.330;9.104;2023-05-07T06:50:33;29.10;;;20.90;;
3131;SDS011;62090;52.330;9.104;2023-05-07T06:53:02;28.10;;;19.30;;
3131;SDS011;62090;52.330;9.104;2023-05-07T06:55:35;25.77;;;20.50;;
3131;SDS011;62090;52.330;9.104;2023-05-07T06:58:05;29.80;;;20.80;;
3131;SDS011;62090;52.330;9.104;2023-05-07T07:00:36;32.60;;;21.47;;
3131;SDS011;62090;52.330;9.104;2023-05-07T07:03:07;24.80;;;18.17;;
3131;SDS011;62090;52.330;9.104;2023-05-07T07:05:38;23.63;;;18.27;;
3131;SDS011;62090;52.330;9.104;2023-05-07T07:08:09;24.93;;;18.10;;
3131;SDS011;62090;52.330;9.104;2023-05-07T07:10:42;27.50;;;17.30;;
3131;SDS011;62090;52.330;9.104;2023-05-07T07:13:12;21.70;;;15.50;;
3131;SDS011;62090;52.330;9.104;2023-05-07T07:15:42;23.57;;;17.13;;
3131;SDS011;62090;52.330;9.104;2023-05-07T07:18:12;22.20;;;16.03;;
3131;SDS011;62090;52.330;9.104;2023-05-07T07:20:42;21.50;;;15.77;;
3131;SDS011;62090;52.330;9.104;2023-05-07T07:23:13;23.73;;;16.67;;
3131;SDS011;62090;52.330;9.104;2023-05-07T07:25:45;21.57;;;15.90;;
3131;SDS011;62090;52.330;9.104;2023-05-07T07:28:15;22.63;;;16.60;;
3131;SDS011;62090;52.330;9.104;2023-05-07T07:30:46;22.97;;;16.17;;
3131;SDS011;62090;52.330;9.104;2023-05-07T07:33:16;26.53;;;16.77;;
3131;SDS011;62090;52.330;9.104;2023-05-07T07:35:46;22.67;;;16.87;;
3131;SDS011;62090;52.330;9.104;2023-05-07T07:38:16;21.80;;;16.00;;
3131;SDS011;62090;52.330;9.104;2023-05-07T07:40:49;21.17;;;15.70;;
3131;SDS011;62090;52.330;9.104;2023-05-07T07:43:19;25.40;;;16.57;;
3131;SDS011;62090;52.330;9.104;2023-05-07T07:45:49;21.33;;;16.10;;
3131;SDS011;62090;52.330;9.104;2023-05-07T07:48:19;23.33;;;15.17;;
3131;SDS011;62090;52.330;9.104;2023-05-07T07:50:49;21.77;;;15.10;;
3131;SDS011;62090;52.330;9.104;2023-05-07T07:53:20;19.83;;;14.60;;
3131;SDS011;62090;52.330;9.104;2023-05-07T07:55:52;19.93;;;15.00;;
3131;SDS011;62090;52.330;9.104;2023-05-07T07:58:27;20.70;;;14.17;;
3131;SDS011;62090;52.330;9.104;2023-05-07T08:00:57;18.03;;;13.93;;
3131;SDS011;62090;52.330;9.104;2023-05-07T08:03:27;19.53;;;13.77;;
3131;SDS011;62090;52.330;9.104;2023-05-07T08:06:00;19.97;;;13.80;;
3131;SDS011;62090;52.330;9.104;2023-05-07T08:08:31;17.00;;;14.17;;
3131;SDS011;62090;52.330;9.104;2023-05-07T08:11:04;19.10;;;13.80;;
3131;SDS011;62090;52.330;9.104;2023-05-07T08:13:35;19.20;;;13.73;;
3131;SDS011;62090;52.330;9.104;2023-05-07T08:16:06;17.90;;;13.20;;
3131;SDS011;62090;52.330;9.104;2023-05-07T08:18:36;17.23;;;12.73;;
3131;SDS011;62090;52.330;9.104;2023-05-07T08:21:06;22.80;;;14.87;;
3131;SDS011;62090;52.330;9.104;2023-05-07T08:23:36;23.70;;;13.50;;
3131;SDS011;62090;52.330;9.104;2023-05-07T08:26:09;19.30;;;14.33;;
3131;SDS011;62090;52.330;9.104;2023-05-07T08:28:39;20.40;;;14.17;;
3131;SDS011;62090;52.330;9.104;2023-05-07T08:31:09;18.07;;;13.40;;
3131;SDS011;62090;52.330;9.104;2023-05-07T08:33:40;20.97;;;15.40;;
3131;SDS011;62090;52.330;9.104;2023-05-07T08:36:10;19.60;;;14.17;;
3131;SDS011;62090;52.330;9.104;2023-05-07T08:38:40;21.00;;;13.60;;
3131;SDS011;62090;52.330;9.104;2023-05-07T08:41:15;20.73;;;13.23;;
3131;SDS011;62090;52.330;9.104;2023-05-07T08:43:46;18.50;;;13.73;;
3131;SDS011;62090;52.330;9.104;2023-05-07T08:46:19;17.07;;;12.00;;
3131;SDS011;62090;52.330;9.104;2023-05-07T08:48:53;16.27;;;12.67;;
3131;SDS011;62090;52.330;9.104;2023-05-07T08:51:23;17.67;;;13.00;;
3131;SDS011;62090;52.330;9.104;2023-05-07T08:53:53;15.60;;;12.50;;
3131;SDS011;62090;52.330;9.104;2023-05-07T08:56:31;15.13;;;11.00;;
3131;SDS011;62090;52.330;9.104;2023-05-07T08:59:01;15.67;;;11.90;;
3131;SDS011;62090;52.330;9.104;2023-05-07T09:01:31;16.07;;;11.87;;
3131;SDS011;62090;52.330;9.104;2023-05-07T09:04:02;16.07;;;11.50;;
3131;SDS011;62090;52.330;9.104;2023-05-07T09:06:34;15.10;;;11.00;;
3131;SDS011;62090;52.330;9.104;2023-05-07T09:09:04;13.33;;;10.57;;
3131;SDS011;62090;52.330;9.104;2023-05-07T09:11:37;14.10;;;10.50;;
3131;SDS011;62090;52.330;9.104;2023-05-07T09:14:07;11.23;;;9.30;;
3131;SDS011;62090;52.330;9.104;2023-05-07T09:16:40;11.67;;;9.30;;
3131;SDS011;62090;52.330;9.104;2023-05-07T09:19:10;9.83;;;8.50;;
3131;SDS011;62090;52.330;9.104;2023-05-07T09:21:44;11.60;;;9.00;;
3131;SDS011;62090;52.330;9.104;2023-05-07T09:24:15;9.60;;;8.27;;
3131;SDS011;62090;52.330;9.104;2023-05-07T09:26:48;12.97;;;8.67;;
3131;SDS011;62090;52.330;9.104;2023-05-07T09:29:18;10.80;;;8.87;;
3131;SDS011;62090;52.330;9.104;2023-05-07T09:31:48;11.03;;;8.20;;
3131;SDS011;62090;52.330;9.104;2023-05-07T09:34:18;12.23;;;8.90;;
3131;SDS011;62090;52.330;9.104;2023-05-07T09:36:48;10.43;;;8.57;;
3131;SDS011;62090;52.330;9.104;2023-05-07T09:39:18;17.00;;;8.60;;
3131;SDS011;62090;52.330;9.104;2023-05-07T09:41:51;12.37;;;9.10;;
3131;SDS011;62090;52.330;9.104;2023-05-07T09:44:29;13.23;;;9.20;;
3131;SDS011;62090;52.330;9.104;2023-05-07T09:47:04;12.27;;;9.53;;
3131;SDS011;62090;52.330;9.104;2023-05-07T09:49:40;9.83;;;7.80;;
3131;SDS011;62090;52.330;9.104;2023-05-07T09:52:19;10.40;;;8.57;;
3131;SDS011;62090;52.330;9.104;2023-05-07T09:54:52;12.77;;;9.00;;
3131;SDS011;62090;52.330;9.104;2023-05-07T09:57:30;15.10;;;8.97;;
3131;SDS011;62090;52.330;9.104;2023-05-07T10:00:04;12.30;;;9.10;;
3131;SDS011;62090;52.330;9.104;2023-05-07T10:02:48;9.40;;;8.27;;
3131;SDS011;62090;52.330;9.104;2023-05-07T10:05:29;10.80;;;9.13;;
3131;SDS011;62090;52.330;9.104;2023-05-07T10:08:01;11.33;;;9.53;;
3131;SDS011;62090;52.330;9.104;2023-05-07T10:10:34;15.00;;;11.07;;
3131;SDS011;62090;52.330;9.104;2023-05-07T10:13:10;14.63;;;10.60;;
3131;SDS011;62090;52.330;9.104;2023-05-07T10:15:45;13.37;;;11.63;;
3131;SDS011;62090;52.330;9.104;2023-05-07T10:18:18;14.07;;;11.10;;
3131;SDS011;62090;52.330;9.104;2023-05-07T10:20:51;14.20;;;11.13;;
3131;SDS011;62090;52.330;9.104;2023-05-07T10:23:23;12.73;;;9.33;;
3131;SDS011;62090;52.330;9.104;2023-05-07T10:25:57;12.93;;;11.17;;
3131;SDS011;62090;52.330;9.104;2023-05-07T10:28:33;13.57;;;10.73;;
3131;SDS011;62090;52.330;9.104;2023-05-07T10:31:17;13.90;;;11.40;;
3131;SDS011;62090;52.330;9.104;2023-05-07T10:34:01;14.23;;;11.50;;
3131;SDS011;62090;52.330;9.104;2023-05-07T10:36:37;14.63;;;10.20;;
3131;SDS011;62090;52.330;9.104;2023-05-07T10:39:09;14.20;;;11.33;;
3131;SDS011;62090;52.330;9.104;2023-05-07T10:41:39;12.87;;;9.40;;
3131;SDS011;62090;52.330;9.104;2023-05-07T10:44:12;13.47;;;10.70;;
3131;SDS011;62090;52.330;9.104;2023-05-07T10:47:03;19.30;;;10.30;;
3131;SDS011;62090;52.330;9.104;2023-05-07T10:49:51;14.13;;;10.63;;
3131;SDS011;62090;52.330;9.104;2023-05-07T10:56:24;12.10;;;9.23;;
3131;SDS011;62090;52.330;9.104;2023-05-07T11:02:09;12.33;;;10.87;;
3131;SDS011;62090;52.330;9.104;2023-05-07T11:05:19;11.10;;;9.13;;
3131;SDS011;62090;52.330;9.104;2023-05-07T11:08:03;13.90;;;9.37;;
3131;SDS011;62090;52.330;9.104;2023-05-07T11:10:49;16.47;;;10.90;;
3131;SDS011;62090;52.330;9.104;2023-05-07T11:13:43;11.40;;;9.73;;
3131;SDS011;62090;52.330;9.104;2023-05-07T11:16:22;12.17;;;9.90;;
3131;SDS011;62090;52.330;9.104;2023-05-07T11:22:40;19.20;;;10.50;;
3131;SDS011;62090;52.330;9.104;2023-05-07T11:25:24;14.70;;;11.13;;
3131;SDS011;62090;52.330;9.104;2023-05-07T11:28:06;10.87;;;9.70;;
3131;SDS011;62090;52.330;9.104;2023-05-07T11:30:42;14.37;;;10.80;;
3131;SDS011;62090;52.330;9.104;2023-05-07T11:33:16;13.07;;;10.50;;
3131;SDS011;62090;52.330;9.104;2023-05-07T11:35:49;13.23;;;10.67;;
3131;SDS011;62090;52.330;9.104;2023-05-07T11:38:25;17.13;;;12.20;;
3131;SDS011;62090;52.330;9.104;2023-05-07T11:40:55;14.47;;;11.67;;
3131;SDS011;62090;52.330;9.104;2023-05-07T11:43:27;14.63;;;11.40;;
3131;SDS011;62090;52.330;9.104;2023-05-07T11:46:04;13.23;;;10.60;;
3131;SDS011;62090;52.330;9.104;2023-05-07T11:48:36;15.10;;;11.93;;
3131;SDS011;62090;52.330;9.104;2023-05-07T11:51:08;18.33;;;11.37;;
3131;SDS011;62090;52.330;9.104;2023-05-07T11:53:41;20.23;;;12.20;;
3131;SDS011;62090;52.330;9.104;2023-05-07T11:56:12;13.77;;;11.30;;
3131;SDS011;62090;52.330;9.104;2023-05-07T11:58:44;13.67;;;11.17;;
3131;SDS011;62090;52.330;9.104;2023-05-07T12:01:15;14.33;;;11.57;;
3131;SDS011;62090;52.330;9.104;2023-05-07T12:03:45;14.07;;;11.70;;
3131;SDS011;62090;52.330;9.104;2023-05-07T12:06:16;14.27;;;11.40;;
3131;SDS011;62090;52.330;9.104;2023-05-07T12:08:48;15.13;;;11.80;;
3131;SDS011;62090;52.330;9.104;2023-05-07T12:11:21;16.47;;;12.40;;
3131;SDS011;62090;52.330;9.104;2023-05-07T12:13:53;17.27;;;10.97;;
3131;SDS011;62090;52.330;9.104;2023-05-07T12:16:25;15.00;;;11.80;;
3131;SDS011;62090;52.330;9.104;2023-05-07T12:18:55;12.60;;;10.53;;
3131;SDS011;62090;52.330;9.104;2023-05-07T12:21:26;13.53;;;11.33;;
3131;SDS011;62090;52.330;9.104;2023-05-07T12:23:58;12.40;;;10.30;;
3131;SDS011;62090;52.330;9.104;2023-05-07T12:26:28;14.97;;;10.70;;
3131;SDS011;62090;52.330;9.104;2023-05-07T12:28:58;23.37;;;12.10;;
3131;SDS011;62090;52.330;9.104;2023-05-07T12:31:28;16.20;;;11.53;;
3131;SDS011;62090;52.330;9.104;2023-05-07T12:33:58;14.73;;;12.00;;
3131;SDS011;62090;52.330;9.104;2023-05-07T12:36:35;17.77;;;12.00;;
3131;SDS011;62090;52.330;9.104;2023-05-07T12:39:08;16.60;;;11.00;;
3131;SDS011;62090;52.330;9.104;2023-05-07T12:41:54;14.50;;;11.50;;
3131;SDS011;62090;52.330;9.104;2023-05-07T12:44:25;14.70;;;11.30;;
3131;SDS011;62090;52.330;9.104;2023-05-07T12:47:01;14.50;;;11.90;;
3131;SDS011;62090;52.330;9.104;2023-05-07T12:49:31;16.00;;;12.00;;
3131;SDS011;62090;52.330;9.104;2023-05-07T12:52:05;14.93;;;12.23;;
3131;SDS011;62090;52.330;9.104;2023-05-07T12:54:38;12.33;;;10.57;;
3131;SDS011;62090;52.330;9.104;2023-05-07T12:57:08;10.63;;;9.63;;
3131;SDS011;62090;52.330;9.104;2023-05-07T12:59:39;12.43;;;10.75;;
3131;SDS011;62090;52.330;9.104;2023-05-07T13:02:10;13.03;;;9.60;;
3131;SDS011;62090;52.330;9.104;2023-05-07T13:04:40;10.90;;;9.33;;
3131;SDS011;62090;52.330;9.104;2023-05-07T13:07:10;12.77;;;9.67;;
3131;SDS011;62090;52.330;9.104;2023-05-07T13:09:42;12.70;;;10.43;;
3131;SDS011;62090;52.330;9.104;2023-05-07T13:12:14;12.60;;;10.00;;
3131;SDS011;62090;52.330;9.104;2023-05-07T13:14:44;11.87;;;10.07;;
3131;SDS011;62090;52.330;9.104;2023-05-07T13:17:14;13.53;;;10.93;;
3131;SDS011;62090;52.330;9.104;2023-05-07T13:19:45;10.83;;;9.20;;
3131;SDS011;62090;52.330;9.104;2023-05-07T13:22:15;10.70;;;9.60;;
3131;SDS011;62090;52.330;9.104;2023-05-07T13:24:47;12.10;;;9.95;;
3131;SDS011;62090;52.330;9.104;2023-05-07T13:27:17;11.40;;;10.17;;
3131;SDS011;62090;52.330;9.104;2023-05-07T13:29:47;10.53;;;9.40;;
3131;SDS011;62090;52.330;9.104;2023-05-07T13:32:17;11.67;;;9.47;;
3131;SDS011;62090;52.330;9.104;2023-05-07T13:34:46;10.70;;;8.37;;
3131;SDS011;62090;52.330;9.104;2023-05-07T13:37:17;14.30;;;9.13;;
3131;SDS011;62090;52.330;9.104;2023-05-07T13:39:49;10.97;;;9.53;;
3131;SDS011;62090;52.330;9.104;2023-05-07T13:42:19;14.23;;;9.80;;
3131;SDS011;62090;52.330;9.104;2023-05-07T13:44:48;10.47;;;9.03;;
3131;SDS011;62090;52.330;9.104;2023-05-07T13:47:18;11.17;;;9.10;;
3131;SDS011;62090;52.330;9.104;2023-05-07T13:49:50;9.63;;;8.60;;
3131;SDS011;62090;52.330;9.104;2023-05-07T13:52:20;10.40;;;8.37;;
3131;SDS011;62090;52.330;9.104;2023-05-07T13:54:52;15.20;;;7.97;;
3131;SDS011;62090;52.330;9.104;2023-05-07T13:57:23;10.43;;;7.93;;
3131;SDS011;62090;52.330;9.104;2023-05-07T13:59:52;9.23;;;7.97;;
3131;SDS011;62090;52.330;9.104;2023-05-07T14:02:22;11.03;;;7.80;;
3131;SDS011;62090;52.330;9.104;2023-05-07T14:04:52;8.47;;;7.53;;
3131;SDS011;62090;52.330;9.104;2023-05-07T14:07:22;8.67;;;7.50;;
3131;SDS011;62090;52.330;9.104;2023-05-07T14:09:54;11.23;;;8.67;;
3131;SDS011;62090;52.330;9.104;2023-05-07T14:12:24;10.13;;;7.83;;
3131;SDS011;62090;52.330;9.104;2023-05-07T14:14:54;8.90;;;7.73;;
3131;SDS011;62090;52.330;9.104;2023-05-07T14:17:24;9.60;;;8.20;;
3131;SDS011;62090;52.330;9.104;2023-05-07T14:19:54;9.73;;;8.27;;
3131;SDS011;62090;52.330;9.104;2023-05-07T14:22:24;11.50;;;8.73;;
3131;SDS011;62090;52.330;9.104;2023-05-07T14:24:56;10.90;;;8.93;;
3131;SDS011;62090;52.330;9.104;2023-05-07T14:27:32;10.93;;;8.17;;
3131;SDS011;62090;52.330;9.104;2023-05-07T14:30:02;14.60;;;10.70;;
3131;SDS011;62090;52.330;9.104;2023-05-07T14:32:33;13.70;;;9.80;;
3131;SDS011;62090;52.330;9.104;2023-05-07T14:35:03;14.20;;;10.20;;
3131;SDS011;62090;52.330;9.104;2023-05-07T14:37:34;12.93;;;10.07;;
3131;SDS011;62090;52.330;9.104;2023-05-07T14:40:07;14.47;;;10.27;;
3131;SDS011;62090;52.330;9.104;2023-05-07T14:42:39;18.53;;;10.67;;
3131;SDS011;62090;52.330;9.104;2023-05-07T14:45:09;15.90;;;12.63;;
3131;SDS011;62090;52.330;9.104;2023-05-07T14:47:40;14.73;;;11.33;;
3131;SDS011;62090;52.330;9.104;2023-05-07T14:50:10;17.90;;;12.53;;
3131;SDS011;62090;52.330;9.104;2023-05-07T14:52:40;12.90;;;11.33;;
3131;SDS011;62090;52.330;9.104;2023-05-07T14:55:12;13.93;;;11.33;;
3131;SDS011;62090;52.330;9.104;2023-05-07T14:57:42;13.90;;;12.17;;
3131;SDS011;62090;52.330;9.104;2023-05-07T15:00:12;19.43;;;10.97;;
3131;SDS011;62090;52.330;9.104;2023-05-07T15:02:42;12.40;;;11.10;;
3131;SDS011;62090;52.330;9.104;2023-05-07T15:05:12;14.03;;;12.00;;
3131;SDS011;62090;52.330;9.104;2023-05-07T15:07:44;14.60;;;11.97;;
3131;SDS011;62090;52.330;9.104;2023-05-07T15:10:16;13.93;;;11.97;;
3131;SDS011;62090;52.330;9.104;2023-05-07T15:12:46;12.40;;;10.40;;
3131;SDS011;62090;52.330;9.104;2023-05-07T15:15:16;13.90;;;11.40;;
3131;SDS011;62090;52.330;9.104;2023-05-07T15:17:46;15.23;;;11.63;;